Terminal Aerodrome Forecast
Issued by NWS Des Moines, IA

Home | Current Version | Previous Version | Text Only | Print | Product List | Glossary On
Versions: 1 2 3 4 5 6 7 8 9 10 11 12 13 14 15 16 17 18 19 20 21 22 23 24 25 26 27 28 29 30 31 32
000
FTUS43 KDMX 251315 AAA
TAFALO
TAF AMD
KALO 251315Z 2513/2612 12007KT 5SM -SHRA SCT040 OVC100
     FM251500 14008KT 5SM -TSRA BKN008 OVC015CB
     FM251600 15011KT P6SM VCTS OVC040CB
     FM251900 16016KT P6SM SCT040 BKN070
     FM260300 16005KT P6SM VCTS BKN035CB OVC080
     FM261000 19005KT P6SM SCT020 BKN100=

USA.gov is the U.S. government's official web portal to all federal, state and local government web resources and services.